createdAt,value
2018-10-12T00:00:46.885Z,12.62
2018-10-12T00:01:46.921Z,12.57
2018-10-12T00:02:46.947Z,12.72
2018-10-12T00:03:46.981Z,12.75
2018-10-12T00:04:47.008Z,12.72
2018-10-12T00:05:47.039Z,12.65
2018-10-12T00:06:47.070Z,12.74
2018-10-12T00:07:47.102Z,12.78
2018-10-12T00:08:47.131Z,12.70
2018-10-12T00:09:47.162Z,12.70
2018-10-12T00:10:47.191Z,12.60
2018-10-12T00:11:47.226Z,12.47
2018-10-12T00:12:47.253Z,12.52
2018-10-12T00:13:47.287Z,12.52
2018-10-12T00:14:47.314Z,12.52
2018-10-12T00:15:47.346Z,12.60
2018-10-12T00:16:47.375Z,12.49
2018-10-12T00:17:47.411Z,12.50
2018-10-12T00:18:47.436Z,12.47
2018-10-12T00:19:47.467Z,12.35
2018-10-12T00:20:47.499Z,12.38
2018-10-12T00:21:47.533Z,12.31
2018-10-12T00:22:47.558Z,12.35
2018-10-12T00:23:47.590Z,12.31
2018-10-12T00:24:47.620Z,12.31
2018-10-12T00:25:47.651Z,12.23
2018-10-12T00:26:47.684Z,12.28
2018-10-12T00:27:47.711Z,12.23
2018-10-12T00:28:47.743Z,12.37
2018-10-12T00:29:47.773Z,12.53
2018-10-12T00:30:47.804Z,12.53
2018-10-12T00:31:47.835Z,12.47
2018-10-12T00:32:47.866Z,12.56
2018-10-12T00:33:47.896Z,12.54
2018-10-12T00:34:47.925Z,12.53
2018-10-12T00:35:47.957Z,12.50
2018-10-12T00:36:47.988Z,12.39
2018-10-12T00:37:48.019Z,12.38
2018-10-12T00:38:48.049Z,12.31
2018-10-12T00:39:48.078Z,12.32
2018-10-12T00:40:48.109Z,12.37
2018-10-12T00:41:48.140Z,12.37
2018-10-12T00:42:48.170Z,12.39
2018-10-12T00:43:48.199Z,12.35
2018-10-12T00:44:48.231Z,12.35
2018-10-12T00:45:48.266Z,12.34
2018-10-12T00:46:48.292Z,12.39
2018-10-12T00:47:48.321Z,12.49
2018-10-12T00:48:48.353Z,12.52
2018-10-12T00:49:48.465Z,12.56
2018-10-12T00:50:48.414Z,12.54
2018-10-12T00:51:48.448Z,12.52
2018-10-12T00:52:48.475Z,12.60
2018-10-12T00:53:48.507Z,12.60
2018-10-12T00:54:48.537Z,12.64
2018-10-12T00:55:48.567Z,12.62
2018-10-12T00:56:48.598Z,12.64
2018-10-12T00:57:48.628Z,12.57
2018-10-12T00:58:48.659Z,12.70
2018-10-12T00:59:48.690Z,12.60
2018-10-12T01:00:48.721Z,12.57
2018-10-12T01:01:48.752Z,12.62
2018-10-12T01:02:48.789Z,12.62
2018-10-12T01:03:48.812Z,12.60
2018-10-12T01:04:48.842Z,12.72
2018-10-12T01:05:48.874Z,12.60
2018-10-12T01:06:49.016Z,12.62
2018-10-12T01:07:48.935Z,12.62
2018-10-12T01:08:48.964Z,12.65
2018-10-12T01:09:48.996Z,12.74
2018-10-12T01:10:49.026Z,12.74
2018-10-12T01:11:49.056Z,12.67
2018-10-12T01:12:49.088Z,12.85
2018-10-12T01:13:49.119Z,12.85
2018-10-12T01:14:49.148Z,12.92
2018-10-12T01:15:49.178Z,12.92
2018-10-12T01:16:49.212Z,12.95
2018-10-12T01:17:49.242Z,12.89
2018-10-12T01:18:49.271Z,12.90
2018-10-12T01:19:49.302Z,12.90
2018-10-12T01:20:49.333Z,12.89
2018-10-12T01:21:49.363Z,12.83
2018-10-12T01:22:49.392Z,12.82
2018-10-12T01:23:49.424Z,12.77
2018-10-12T01:24:49.456Z,12.95
2018-10-12T01:25:49.487Z,12.92
2018-10-12T01:26:49.516Z,12.93
2018-10-12T01:27:49.546Z,12.90
2018-10-12T01:28:49.579Z,12.78
2018-10-12T01:29:49.609Z,12.85
2018-10-12T01:30:49.639Z,12.89
2018-10-12T01:31:49.669Z,12.92
2018-10-12T01:32:49.701Z,12.83
2018-10-12T01:33:49.731Z,12.86
2018-10-12T01:34:49.761Z,12.93
2018-10-12T01:35:49.792Z,12.93
2018-10-12T01:36:49.824Z,12.95
2018-10-12T01:37:49.854Z,12.96
2018-10-12T01:38:49.885Z,12.90
2018-10-12T01:39:49.918Z,12.92
2018-10-12T01:40:49.948Z,12.90
2018-10-12T01:41:49.977Z,12.86
2018-10-12T01:42:50.008Z,12.86
2018-10-12T01:43:50.041Z,12.93
2018-10-12T01:44:50.069Z,12.85
2018-10-12T01:45:50.100Z,12.90
2018-10-12T01:46:50.131Z,12.86
2018-10-12T01:47:50.163Z,12.96
2018-10-12T01:48:50.192Z,12.85
2018-10-12T01:49:50.222Z,12.87
2018-10-12T01:50:50.252Z,12.75
2018-10-12T01:51:50.283Z,12.68
2018-10-12T01:52:50.313Z,12.65
2018-10-12T01:53:50.345Z,12.57
2018-10-12T01:54:50.376Z,12.67
2018-10-12T01:55:50.407Z,12.64
2018-10-12T01:56:50.438Z,12.60
2018-10-12T01:57:50.469Z,12.75
2018-10-12T01:58:50.498Z,12.74
2018-10-12T01:59:50.528Z,12.72
2018-10-12T02:00:50.559Z,12.72
2018-10-12T02:01:50.591Z,12.74
2018-10-12T02:02:50.619Z,12.77
2018-10-12T02:03:50.651Z,12.79
2018-10-12T02:04:50.683Z,12.78
2018-10-12T02:05:50.713Z,12.79
2018-10-12T02:06:50.743Z,12.85
2018-10-12T02:07:50.773Z,12.85
2018-10-12T02:08:50.806Z,12.85
2018-10-12T02:09:50.882Z,12.83
2018-10-12T02:10:50.866Z,12.74
2018-10-12T02:11:50.896Z,12.67
2018-10-12T02:12:50.927Z,12.60
2018-10-12T02:13:50.958Z,12.59
2018-10-12T02:14:50.988Z,12.54
2018-10-12T02:15:51.018Z,12.60
2018-10-12T02:16:51.053Z,12.60
2018-10-12T02:17:51.080Z,12.54
2018-10-12T02:18:51.109Z,12.64
2018-10-12T02:19:51.139Z,12.72
2018-10-12T02:20:51.173Z,12.60
2018-10-12T02:21:51.201Z,12.60
2018-10-12T02:22:51.231Z,12.77
2018-10-12T02:23:51.262Z,12.71
2018-10-12T02:24:51.294Z,12.64
2018-10-12T02:25:51.324Z,12.72
2018-10-12T02:26:51.354Z,12.60
2018-10-12T02:27:51.386Z,12.72
2018-10-12T02:28:51.415Z,12.68
2018-10-12T02:29:51.446Z,12.71
2018-10-12T02:30:51.477Z,12.60
2018-10-12T02:31:51.507Z,12.64
2018-10-12T02:32:51.591Z,12.60
2018-10-12T02:33:51.571Z,12.49
2018-10-12T02:34:51.600Z,12.52
2018-10-12T02:35:51.628Z,12.56
2018-10-12T02:36:51.661Z,12.47
2018-10-12T02:37:51.689Z,12.39
2018-10-12T02:38:51.721Z,12.31
2018-10-12T02:39:51.750Z,12.39
2018-10-12T02:40:51.782Z,12.32
2018-10-12T02:41:51.813Z,12.31
2018-10-12T02:42:51.841Z,12.52
2018-10-12T02:43:51.871Z,12.46
2018-10-12T02:44:51.904Z,12.47
2018-10-12T02:45:51.933Z,12.50
2018-10-12T02:46:51.964Z,12.46
2018-10-12T02:47:51.993Z,12.59
2018-10-12T02:48:52.024Z,12.50
2018-10-12T02:49:52.055Z,12.54
2018-10-12T02:50:52.086Z,12.53
2018-10-12T02:51:52.116Z,12.46
2018-10-12T02:52:52.148Z,12.53
2018-10-12T02:53:52.176Z,12.60
2018-10-12T02:54:52.205Z,12.60
2018-10-12T02:55:52.243Z,12.56
2018-10-12T02:56:52.268Z,12.47
2018-10-12T02:57:52.299Z,12.53
2018-10-12T02:58:52.329Z,12.54
2018-10-12T02:59:52.361Z,12.47
2018-10-12T03:00:52.390Z,12.52
2018-10-12T03:01:52.421Z,12.54
2018-10-12T03:02:52.449Z,12.46
2018-10-12T03:03:52.480Z,12.50
2018-10-12T03:04:52.511Z,12.47
2018-10-12T03:05:52.543Z,12.37
2018-10-12T03:06:52.581Z,12.32
2018-10-12T03:07:52.601Z,12.34
2018-10-12T03:08:52.631Z,12.21
2018-10-12T03:09:52.661Z,12.21
2018-10-12T03:10:52.693Z,12.24
2018-10-12T03:11:52.724Z,12.29
2018-10-12T03:12:52.753Z,12.29
2018-10-12T03:13:52.783Z,12.29
2018-10-12T03:14:52.813Z,12.38
2018-10-12T03:15:52.844Z,12.28
2018-10-12T03:16:52.876Z,12.24
2018-10-12T03:17:52.907Z,12.34
2018-10-12T03:18:52.934Z,12.37
2018-10-12T03:19:52.965Z,12.28
2018-10-12T03:20:52.999Z,12.27
2018-10-12T03:21:53.027Z,12.24
2018-10-12T03:22:53.057Z,12.23
2018-10-12T03:23:53.087Z,12.13
2018-10-12T03:24:53.118Z,12.13
2018-10-12T03:25:53.149Z,12.05
2018-10-12T03:26:53.177Z,12.05
2018-10-12T03:27:53.211Z,11.95
2018-10-12T03:28:53.239Z,11.98
2018-10-12T03:29:53.270Z,12.05
2018-10-12T03:30:53.299Z,12.01
2018-10-12T03:31:53.330Z,12.12
2018-10-12T03:32:53.361Z,12.16
2018-10-12T03:33:53.442Z,12.17
2018-10-12T03:34:53.420Z,12.07
2018-10-12T03:35:53.451Z,12.07
2018-10-12T03:36:53.483Z,12.10
2018-10-12T03:37:53.512Z,12.10
2018-10-12T03:38:53.543Z,12.04
2018-10-12T03:39:53.572Z,12.07
2018-10-12T03:40:53.602Z,12.10
2018-10-12T03:41:53.634Z,12.17
2018-10-12T03:42:53.665Z,12.12
2018-10-12T03:43:53.693Z,12.13
2018-10-12T03:44:53.725Z,12.12
2018-10-12T03:45:53.755Z,12.13
2018-10-12T03:46:53.784Z,12.04
2018-10-12T03:47:53.815Z,12.13
2018-10-12T03:48:53.846Z,12.07
2018-10-12T03:49:53.877Z,12.09
2018-10-12T03:50:53.904Z,12.09
2018-10-12T03:51:54.016Z,12.09
2018-10-12T03:52:53.967Z,12.09
2018-10-12T03:53:53.997Z,12.05
2018-10-12T03:54:54.027Z,12.07
2018-10-12T03:55:54.056Z,12.05
2018-10-12T03:56:54.087Z,12.04
2018-10-12T03:57:54.119Z,12.09
2018-10-12T03:58:54.147Z,12.09
2018-10-12T03:59:54.176Z,12.09
2018-10-12T04:00:54.207Z,12.07
2018-10-12T04:01:54.237Z,12.12
2018-10-12T04:02:54.423Z,12.13
2018-10-12T04:03:54.297Z,12.07
2018-10-12T04:04:54.329Z,12.12
2018-10-12T04:05:54.358Z,12.04
2018-10-12T04:06:54.390Z,12.09
2018-10-12T04:07:54.420Z,12.09
2018-10-12T04:08:54.449Z,12.02
2018-10-12T04:09:54.479Z,11.98
2018-10-12T04:10:54.509Z,11.98
2018-10-12T04:11:54.541Z,11.95
2018-10-12T04:12:54.575Z,11.99
2018-10-12T04:13:54.606Z,11.86
2018-10-12T04:14:54.629Z,11.94
2018-10-12T04:15:54.659Z,11.98
2018-10-12T04:16:54.690Z,11.76
2018-10-12T04:17:54.720Z,11.78
2018-10-12T04:18:54.749Z,11.75
2018-10-12T04:19:54.780Z,11.73
2018-10-12T04:20:54.811Z,11.67
2018-10-12T04:21:54.840Z,11.60
2018-10-12T04:22:54.870Z,11.79
2018-10-12T04:23:54.900Z,11.76
2018-10-12T04:24:54.930Z,11.76
2018-10-12T04:25:54.960Z,11.76
2018-10-12T04:26:54.991Z,11.79
2018-10-12T04:27:55.020Z,11.85
2018-10-12T04:28:55.054Z,11.86
2018-10-12T04:29:55.081Z,11.99
2018-10-12T04:30:55.111Z,11.94
2018-10-12T04:31:55.140Z,12.05
2018-10-12T04:32:55.171Z,11.98
2018-10-12T04:33:55.201Z,11.99
2018-10-12T04:34:55.231Z,12.04
2018-10-12T04:35:55.262Z,12.09
2018-10-12T04:36:55.291Z,12.01
2018-10-12T04:37:55.321Z,11.86
2018-10-12T04:38:55.352Z,11.90
2018-10-12T04:39:55.381Z,11.99
2018-10-12T04:40:55.412Z,11.90
2018-10-12T04:41:55.442Z,11.94
2018-10-12T04:42:55.473Z,11.96
2018-10-12T04:43:55.501Z,11.75
2018-10-12T04:44:55.535Z,11.75
2018-10-12T04:45:55.583Z,11.76
2018-10-12T04:46:55.592Z,11.75
2018-10-12T04:47:55.623Z,11.65
2018-10-12T04:48:55.658Z,11.67
2018-10-12T04:49:55.683Z,11.79
2018-10-12T04:50:55.712Z,11.78
2018-10-12T04:51:55.742Z,11.79
2018-10-12T04:52:55.774Z,11.86
2018-10-12T04:53:55.910Z,11.96
2018-10-12T04:54:55.833Z,11.94
2018-10-12T04:55:55.863Z,11.90
2018-10-12T04:56:55.892Z,11.91
2018-10-12T04:57:55.925Z,11.96
2018-10-12T04:58:55.954Z,11.94
2018-10-12T04:59:55.983Z,11.86
2018-10-12T05:00:56.040Z,12.01
2018-10-12T05:01:56.043Z,12.02
2018-10-12T05:02:56.072Z,12.04
2018-10-12T05:03:56.104Z,12.01
2018-10-12T05:04:56.133Z,11.96
2018-10-12T05:05:56.163Z,11.98
2018-10-12T05:06:56.192Z,11.95
2018-10-12T05:07:56.223Z,11.85
2018-10-12T05:08:56.253Z,11.94
2018-10-12T05:09:56.283Z,11.86
2018-10-12T05:10:56.312Z,12.04
2018-10-12T05:11:56.343Z,11.94
2018-10-12T05:12:56.373Z,11.91
2018-10-12T05:13:56.403Z,11.86
2018-10-12T05:14:56.437Z,12.07
2018-10-12T05:15:56.463Z,11.99
2018-10-12T05:16:56.495Z,11.98
2018-10-12T05:17:56.524Z,11.94
2018-10-12T05:18:56.555Z,11.98
2018-10-12T05:19:56.583Z,11.95
2018-10-12T05:20:56.667Z,11.80
2018-10-12T05:21:56.661Z,11.73
2018-10-12T05:22:56.673Z,11.69
2018-10-12T05:23:56.702Z,11.69
2018-10-12T05:24:56.732Z,11.67
2018-10-12T05:25:56.763Z,11.61
2018-10-12T05:26:56.792Z,11.60
2018-10-12T05:27:56.823Z,11.72
2018-10-12T05:28:56.894Z,11.69
2018-10-12T05:29:56.883Z,11.76
2018-10-12T05:30:56.913Z,11.79
2018-10-12T05:31:56.943Z,11.76
2018-10-12T05:32:56.973Z,11.80
2018-10-12T05:33:57.003Z,11.73
2018-10-12T05:34:57.061Z,11.78
2018-10-12T05:35:57.119Z,11.79
2018-10-12T05:36:57.093Z,11.76
2018-10-12T05:37:57.124Z,11.78
2018-10-12T05:38:57.156Z,11.98
2018-10-12T05:40:00.287Z,11.98
2018-10-12T05:40:57.212Z,11.88
2018-10-12T05:41:57.241Z,11.88
2018-10-12T05:42:57.467Z,11.99
2018-10-12T05:43:57.301Z,11.96
2018-10-12T05:44:57.332Z,11.98
2018-10-12T05:45:57.362Z,11.83
2018-10-12T05:46:57.393Z,11.98
2018-10-12T05:47:57.421Z,11.94
2018-10-12T05:48:57.577Z,11.94
2018-10-12T05:49:57.481Z,11.96
2018-10-12T05:50:57.510Z,11.96
2018-10-12T05:51:57.540Z,11.99
2018-10-12T05:52:57.570Z,11.94
2018-10-12T05:53:57.600Z,12.01
2018-10-12T05:54:57.630Z,12.07
2018-10-12T05:55:57.755Z,12.19
2018-10-12T05:56:57.690Z,12.32
2018-10-12T05:57:57.721Z,12.45
2018-10-12T05:58:57.749Z,12.38
2018-10-12T05:59:57.782Z,12.37
2018-10-12T06:00:57.810Z,12.32
2018-10-12T06:01:57.840Z,12.37
2018-10-12T06:02:57.872Z,12.53
2018-10-12T06:03:57.901Z,12.45
2018-10-12T06:04:57.931Z,12.42
2018-10-12T06:05:57.960Z,12.60
2018-10-12T06:06:57.991Z,12.49
2018-10-12T06:07:58.023Z,12.62
2018-10-12T06:08:58.050Z,12.46
2018-10-12T06:09:58.190Z,12.53
2018-10-12T06:10:58.112Z,12.57
2018-10-12T06:11:58.144Z,12.64
2018-10-12T06:12:58.173Z,12.57
2018-10-12T06:13:58.203Z,12.67
2018-10-12T06:14:58.232Z,12.62
2018-10-12T06:15:58.361Z,12.71
2018-10-12T06:16:58.293Z,12.75
2018-10-12T06:17:58.325Z,12.82
2018-10-12T06:18:58.354Z,12.87
2018-10-12T06:19:58.387Z,12.85
2018-10-12T06:20:58.416Z,12.87
2018-10-12T06:21:58.447Z,12.75
2018-10-12T06:22:58.475Z,12.82
2018-10-12T06:23:58.506Z,12.74
2018-10-12T06:24:58.538Z,12.72
2018-10-12T06:25:58.567Z,12.68
2018-10-12T06:26:58.654Z,12.75
2018-10-12T06:27:58.629Z,12.83
2018-10-12T06:28:58.659Z,12.71
2018-10-12T06:29:58.691Z,12.79
2018-10-12T06:30:58.721Z,12.78
2018-10-12T06:31:58.750Z,12.85
2018-10-12T06:32:58.865Z,12.87
2018-10-12T06:33:58.815Z,12.65
2018-10-12T06:34:58.843Z,12.78
2018-10-12T06:35:58.872Z,12.78
2018-10-12T06:36:58.903Z,12.82
2018-10-12T06:37:58.937Z,12.90
2018-10-12T06:38:58.963Z,12.95
2018-10-12T06:39:58.996Z,12.89
2018-10-12T06:40:59.068Z,12.93
2018-10-12T06:41:59.058Z,12.89
2018-10-12T06:42:59.086Z,12.97
2018-10-12T06:43:59.142Z,13.03
2018-10-12T06:44:59.161Z,13.08
2018-10-12T06:45:59.178Z,13.12
2018-10-12T06:46:59.209Z,13.23
2018-10-12T06:47:59.241Z,13.36
2018-10-12T06:48:59.271Z,13.39
2018-10-12T06:49:59.303Z,13.44
2018-10-12T06:50:59.332Z,13.36
2018-10-12T06:51:59.363Z,13.44
2018-10-12T06:52:59.395Z,13.57
2018-10-12T06:53:59.529Z,13.62
2018-10-12T06:54:59.455Z,13.60
2018-10-12T06:55:59.486Z,13.66
2018-10-12T06:56:59.518Z,13.84
2018-10-12T06:57:59.550Z,13.87
2018-10-12T06:58:59.581Z,13.89
2018-10-12T06:59:59.700Z,13.97
2018-10-12T07:00:59.643Z,14.07
2018-10-12T07:01:59.674Z,14.12
2018-10-12T07:02:59.704Z,14.32
2018-10-12T07:03:59.735Z,14.42
2018-10-12T07:04:59.767Z,14.29
2018-10-12T07:05:59.803Z,14.42
2018-10-12T07:06:59.830Z,14.39
2018-10-12T07:07:59.861Z,14.50
2018-10-12T07:08:59.895Z,14.60
2018-10-12T07:09:59.925Z,14.72
2018-10-12T07:10:59.956Z,14.83
2018-10-12T07:11:59.988Z,14.92
2018-10-12T07:13:00.020Z,14.91
2018-10-12T07:14:00.343Z,14.95
2018-10-12T07:15:00.082Z,14.98
2018-10-12T07:16:00.114Z,15.10
2018-10-12T07:17:00.146Z,15.11
2018-10-12T07:18:00.178Z,15.11
2018-10-12T07:19:00.211Z,15.32
2018-10-12T07:20:00.243Z,15.31
2018-10-12T07:21:00.274Z,15.47
2018-10-12T07:22:00.307Z,15.59
2018-10-12T07:23:00.341Z,15.64
2018-10-12T07:24:00.371Z,15.69
2018-10-12T07:25:00.404Z,15.92
2018-10-12T07:26:00.521Z,16.02
2018-10-12T07:27:00.469Z,16.11
2018-10-12T07:28:00.502Z,16.12
2018-10-12T07:29:00.535Z,16.24
2018-10-12T07:30:00.573Z,16.38
2018-10-12T07:31:00.599Z,16.50
2018-10-12T07:32:00.633Z,16.57
2018-10-12T07:33:00.667Z,16.67
2018-10-12T07:34:00.698Z,16.81
2018-10-12T07:35:00.730Z,16.96
2018-10-12T07:36:01.164Z,17.06
2018-10-12T07:37:00.807Z,17.28
2018-10-12T07:38:00.833Z,17.43
2018-10-12T07:39:00.865Z,17.56
2018-10-12T07:40:00.899Z,17.48
2018-10-12T07:41:00.932Z,17.59
2018-10-12T07:42:00.966Z,17.70
2018-10-12T07:43:01.000Z,17.75
2018-10-12T07:44:01.035Z,17.86
2018-10-12T07:45:01.067Z,17.93
2018-10-12T07:46:01.102Z,17.95
2018-10-12T07:47:01.141Z,18.11
2018-10-12T07:48:01.204Z,17.99
2018-10-12T07:49:01.203Z,18.21
2018-10-12T07:50:01.240Z,18.27
2018-10-12T07:51:01.272Z,18.26
2018-10-12T07:52:01.305Z,18.92
2018-10-12T07:53:01.399Z,19.84
2018-10-12T07:54:01.376Z,21.01
2018-10-12T07:55:01.409Z,21.96
2018-10-12T07:56:01.471Z,23.10
2018-10-12T07:57:01.483Z,24.08
2018-10-12T07:58:01.513Z,25.20
2018-10-12T07:59:01.549Z,25.70
2018-10-12T08:00:01.592Z,26.45
2018-10-12T08:01:01.618Z,27.04
2018-10-12T08:02:01.654Z,27.75
2018-10-12T08:03:01.693Z,28.14
2018-10-12T08:04:01.727Z,28.48
2018-10-12T08:05:01.760Z,28.77
2018-10-12T08:06:01.818Z,29.16
2018-10-12T08:07:01.832Z,29.42
2018-10-12T08:08:01.869Z,29.48
2018-10-12T08:09:01.916Z,29.79
2018-10-12T08:10:01.944Z,29.34
2018-10-12T08:11:01.979Z,29.26
2018-10-12T08:12:02.015Z,28.83
2018-10-12T08:13:02.052Z,28.86
2018-10-12T08:14:02.107Z,29.23
2018-10-12T08:15:02.125Z,29.28
2018-10-12T08:16:02.164Z,29.53
2018-10-12T08:17:02.201Z,29.49
2018-10-12T08:18:02.240Z,29.71
2018-10-12T08:19:02.277Z,30.07
2018-10-12T08:20:02.313Z,30.37
2018-10-12T08:21:02.351Z,30.82
2018-10-12T08:22:02.391Z,31.07
2018-10-12T08:23:02.428Z,31.38
2018-10-12T08:24:02.468Z,31.53
2018-10-12T08:25:02.506Z,31.50
2018-10-12T08:26:02.544Z,31.84
2018-10-12T08:27:02.641Z,31.96
2018-10-12T08:28:02.620Z,32.26
2018-10-12T08:29:02.660Z,32.41
2018-10-12T08:30:02.700Z,32.66
2018-10-12T08:31:02.738Z,32.88
2018-10-12T08:32:02.778Z,33.19
2018-10-12T08:33:02.860Z,33.04
2018-10-12T08:34:02.857Z,32.99
2018-10-12T08:35:02.895Z,33.15
2018-10-12T08:36:02.936Z,33.01
2018-10-12T08:37:03.002Z,32.97
2018-10-12T08:38:03.017Z,33.26
2018-10-12T08:39:03.056Z,33.38
2018-10-12T08:40:03.097Z,32.57
2018-10-12T08:41:03.136Z,32.45
2018-10-12T08:42:03.178Z,31.86
2018-10-12T08:43:03.218Z,31.10
2018-10-12T08:44:03.258Z,31.36
2018-10-12T08:45:03.300Z,31.14
2018-10-12T08:46:03.341Z,31.48
2018-10-12T08:47:03.383Z,30.62
2018-10-12T08:48:03.425Z,31.23
2018-10-12T08:49:03.466Z,30.82
2018-10-12T08:50:03.508Z,30.82
2018-10-12T08:51:03.549Z,30.54
2018-10-12T08:52:03.591Z,31.01
2018-10-12T08:53:03.634Z,30.86
2018-10-12T08:54:03.677Z,31.34
2018-10-12T08:55:03.718Z,30.98
2018-10-12T08:56:03.761Z,31.32
2018-10-12T08:57:03.804Z,31.41
2018-10-12T08:58:03.847Z,31.81
2018-10-12T08:59:03.891Z,31.43
2018-10-12T09:00:03.933Z,30.95
2018-10-12T09:01:03.977Z,31.35
2018-10-12T09:02:04.021Z,31.25
2018-10-12T09:03:04.068Z,31.35
2018-10-12T09:04:04.105Z,31.65
2018-10-12T09:05:04.151Z,31.92
2018-10-12T09:06:04.195Z,32.26
2018-10-12T09:07:04.236Z,32.51
2018-10-12T09:08:04.281Z,32.72
2018-10-12T09:09:04.328Z,32.84
2018-10-12T09:10:04.371Z,32.74
2018-10-12T09:11:04.415Z,33.15
2018-10-12T09:12:04.463Z,33.45
2018-10-12T09:13:04.504Z,33.34
2018-10-12T09:14:04.550Z,33.53
2018-10-12T09:15:04.598Z,32.94
2018-10-12T09:16:04.694Z,33.73
2018-10-12T09:17:04.685Z,34.03
2018-10-12T09:18:04.730Z,34.70
2018-10-12T09:19:04.774Z,35.37
2018-10-12T09:20:04.865Z,35.71
2018-10-12T09:21:04.866Z,36.20
2018-10-12T09:22:05.113Z,36.09
2018-10-12T09:23:04.956Z,35.63
2018-10-12T09:24:05.003Z,35.43
2018-10-12T09:25:07.672Z,35.66
2018-10-12T09:26:05.095Z,35.45
2018-10-12T09:27:05.194Z,35.14
2018-10-12T09:28:05.189Z,35.07
2018-10-12T09:29:05.234Z,34.34
2018-10-12T09:30:05.290Z,34.66
2018-10-12T09:31:05.330Z,34.78
2018-10-12T09:32:05.374Z,34.49
2018-10-12T09:33:05.422Z,33.35
2018-10-12T09:34:05.468Z,33.59
2018-10-12T09:35:05.514Z,33.57
2018-10-12T09:36:05.562Z,34.13
2018-10-12T09:37:05.674Z,33.72
2018-10-12T09:38:05.657Z,33.79
2018-10-12T09:39:05.704Z,33.72
2018-10-12T09:40:05.751Z,33.81
2018-10-12T09:41:05.800Z,33.42
2018-10-12T09:42:05.847Z,33.22
2018-10-12T09:43:05.943Z,32.44
2018-10-12T09:44:05.946Z,31.95
2018-10-12T09:45:05.990Z,31.85
2018-10-12T09:46:06.037Z,31.68
2018-10-12T09:47:06.085Z,31.92
2018-10-12T09:48:06.133Z,32.14
2018-10-12T09:49:06.181Z,31.56
2018-10-12T09:50:06.229Z,31.43
2018-10-12T09:51:06.275Z,31.57
2018-10-12T09:52:06.324Z,32.00
2018-10-12T09:53:06.373Z,31.95
2018-10-12T09:54:06.420Z,32.88
2018-10-12T09:55:06.470Z,32.67
2018-10-12T09:56:06.516Z,32.89
2018-10-12T09:57:06.564Z,32.69
2018-10-12T09:58:06.611Z,33.19
2018-10-12T09:59:06.658Z,33.14
2018-10-12T10:01:09.321Z,33.21
2018-10-12T10:02:09.436Z,33.35
2018-10-12T10:03:09.417Z,33.54
2018-10-12T10:04:09.465Z,32.59
2018-10-12T10:05:09.513Z,33.01
2018-10-12T10:07:07.464Z,32.69
2018-10-12T10:08:07.317Z,32.75
2018-10-12T10:09:07.328Z,33.39
2018-10-12T10:10:07.304Z,33.18
2018-10-12T10:11:07.354Z,33.12
2018-10-12T10:12:07.404Z,33.65
2018-10-12T10:13:07.451Z,33.47
2018-10-12T10:14:07.497Z,33.29
2018-10-12T10:15:07.546Z,34.13
2018-10-12T10:16:07.595Z,33.39
2018-10-12T10:17:07.642Z,34.28
2018-10-12T10:18:07.692Z,33.84
2018-10-12T10:19:07.813Z,33.82
2018-10-12T10:20:07.788Z,33.79
2018-10-12T10:21:07.836Z,33.76
2018-10-12T10:22:07.887Z,33.35
2018-10-12T10:23:07.935Z,33.03
2018-10-12T10:24:07.986Z,33.47
2018-10-12T10:25:08.104Z,33.79
2018-10-12T10:26:08.081Z,34.12
2018-10-12T10:27:08.130Z,33.84
2018-10-12T10:28:08.178Z,33.35
2018-10-12T10:29:08.269Z,34.05
2018-10-12T10:30:08.276Z,34.02
2018-10-12T10:31:08.325Z,34.44
2018-10-12T10:32:08.422Z,34.21
2018-10-12T10:33:08.427Z,34.50
2018-10-12T10:34:08.524Z,34.80
2018-10-12T10:35:08.520Z,35.03
2018-10-12T10:36:08.570Z,34.49
2018-10-12T10:37:08.619Z,35.28
2018-10-12T10:38:08.668Z,35.25
2018-10-12T10:39:08.838Z,35.68
2018-10-12T10:40:08.768Z,35.96
2018-10-12T10:41:08.816Z,35.65
2018-10-12T10:42:08.867Z,35.99
2018-10-12T10:43:08.928Z,36.19
2018-10-12T10:44:08.966Z,35.66
2018-10-12T10:45:09.017Z,35.72
2018-10-12T10:46:09.130Z,35.47
2018-10-12T10:47:09.116Z,35.48
2018-10-12T10:48:09.167Z,35.07
2018-10-12T10:49:09.215Z,35.40
2018-10-12T10:50:09.266Z,34.91
2018-10-12T10:51:09.316Z,35.59
2018-10-12T10:52:09.366Z,35.90
2018-10-12T10:53:09.415Z,36.76
2018-10-12T10:54:09.469Z,37.12
2018-10-12T10:55:09.518Z,37.27
2018-10-12T10:56:09.569Z,37.27
2018-10-12T10:57:09.620Z,37.43
2018-10-12T10:58:09.671Z,37.84
2018-10-12T10:59:09.721Z,38.20
2018-10-12T11:00:09.772Z,38.98
2018-10-12T11:01:09.823Z,38.26
2018-10-12T11:02:09.873Z,37.62
2018-10-12T11:03:09.928Z,38.11
2018-10-12T11:04:09.977Z,38.06
2018-10-12T11:05:10.027Z,38.13
2018-10-12T11:06:10.380Z,38.91
2018-10-12T11:07:10.131Z,39.91
2018-10-12T11:08:10.184Z,40.38
2018-10-12T11:09:10.235Z,40.43
2018-10-12T11:10:10.286Z,39.82
2018-10-12T11:11:10.364Z,40.51
2018-10-12T11:12:10.396Z,40.65
2018-10-12T11:13:10.443Z,41.14
2018-10-12T11:14:10.497Z,41.35
2018-10-12T11:15:10.547Z,41.93
2018-10-12T11:16:14.035Z,42.71
2018-10-12T11:17:10.652Z,42.40
2018-10-12T11:18:10.704Z,42.33
2018-10-12T11:19:10.757Z,41.33
2018-10-12T11:20:10.809Z,40.22
2018-10-12T11:21:10.862Z,40.60
2018-10-12T11:22:10.913Z,41.36
2018-10-12T11:23:11.192Z,41.84
2018-10-12T11:24:11.019Z,41.94
2018-10-12T11:25:11.070Z,42.05
2018-10-12T11:26:11.182Z,42.65
2018-10-12T11:27:11.176Z,43.30
2018-10-12T11:28:11.229Z,41.42
2018-10-12T11:29:11.281Z,40.15
2018-10-12T11:30:11.945Z,40.41
2018-10-12T11:31:12.123Z,41.25
2018-10-12T11:34:27.573Z,42.65
2018-10-12T11:35:24.216Z,42.24
2018-10-12T11:36:24.271Z,42.84
2018-10-12T11:37:24.302Z,42.70
2018-10-12T11:38:24.463Z,42.96
2018-10-12T11:39:24.408Z,43.50
2018-10-12T11:40:24.462Z,43.76
2018-10-12T11:41:24.514Z,43.47
2018-10-12T11:42:24.569Z,43.14
2018-10-12T11:43:24.623Z,43.07
2018-10-12T11:44:24.677Z,43.66
2018-10-12T11:45:24.736Z,43.17
2018-10-12T11:46:24.782Z,42.55
2018-10-12T11:47:25.039Z,39.57
2018-10-12T11:49:24.951Z,41.33
2018-10-12T11:50:24.996Z,41.23
2018-10-12T11:51:25.051Z,41.89
2018-10-12T11:52:25.102Z,41.62
2018-10-12T11:53:25.157Z,41.01
2018-10-12T11:54:25.211Z,40.64
2018-10-12T11:55:25.264Z,39.86
2018-10-12T11:56:25.316Z,40.87
2018-10-12T11:57:25.371Z,41.70
2018-10-12T11:58:25.426Z,42.46
2018-10-12T11:59:25.477Z,43.49
2018-10-12T12:00:25.531Z,44.34
2018-10-12T12:01:25.583Z,43.86
2018-10-12T12:02:25.638Z,44.58
2018-10-12T12:03:25.691Z,44.59
2018-10-12T12:04:25.744Z,44.60
2018-10-12T12:05:28.825Z,44.62
2018-10-12T12:06:25.851Z,44.50
2018-10-12T12:07:25.970Z,44.05
2018-10-12T12:08:25.958Z,42.58
2018-10-12T12:09:26.013Z,40.92
2018-10-12T12:10:26.067Z,41.66
2018-10-12T12:11:26.120Z,41.42
2018-10-12T12:12:26.173Z,41.11
2018-10-12T12:13:26.273Z,41.11
2018-10-12T12:14:26.282Z,41.14
2018-10-12T12:15:26.333Z,41.51
2018-10-12T12:16:26.385Z,41.36
2018-10-12T12:17:26.441Z,42.23
2018-10-12T12:18:26.493Z,40.98
2018-10-12T12:19:26.617Z,41.96
2018-10-12T12:20:26.601Z,42.30
2018-10-12T12:21:26.651Z,43.12
2018-10-12T12:22:26.714Z,43.57
2018-10-12T12:23:26.758Z,42.91
2018-10-12T12:24:26.813Z,43.47
2018-10-12T12:25:26.865Z,43.56
2018-10-12T12:26:26.920Z,43.61
2018-10-12T12:27:26.972Z,41.78
2018-10-12T12:28:27.026Z,40.76
2018-10-12T12:29:27.079Z,41.80
2018-10-12T12:30:27.134Z,42.11
2018-10-12T12:31:27.188Z,42.11
2018-10-12T12:32:27.239Z,42.12
2018-10-12T12:33:27.295Z,42.46
2018-10-12T12:34:27.413Z,42.99
2018-10-12T12:35:27.596Z,43.60
2018-10-12T12:36:27.453Z,44.14
2018-10-12T12:37:27.508Z,43.68
2018-10-12T12:38:27.564Z,43.56
2018-10-12T12:39:27.614Z,43.02
2018-10-12T12:40:27.668Z,43.53
2018-10-12T12:41:27.726Z,43.47
2018-10-12T12:42:27.776Z,43.42
2018-10-12T12:43:27.829Z,43.23
2018-10-12T12:44:27.882Z,43.27
2018-10-12T12:45:27.935Z,43.50
2018-10-12T12:46:27.989Z,43.56
2018-10-12T12:47:28.120Z,44.22
2018-10-12T12:48:28.268Z,44.24
2018-10-12T12:49:28.386Z,44.02
2018-10-12T12:50:28.204Z,44.22
2018-10-12T12:51:28.258Z,44.36
2018-10-12T12:52:28.310Z,43.60
2018-10-12T12:53:28.363Z,44.31
2018-10-12T12:54:28.417Z,44.43
2018-10-12T12:55:28.473Z,44.62
2018-10-12T12:56:28.524Z,44.39
2018-10-12T12:57:28.579Z,44.47
2018-10-12T12:58:28.631Z,44.64